Time;durP1;ratioP1;P1;durP2;ratioP2;P2;SDS_P1;SDS_P2;PMS_P1;PMS_P2;Temp;Humidity;BMP_temperature;BMP_pressure;BME280_temperature;BME280_humidity;BME280_pressure;Samples;Min_cycle;Max_cycle;Signal;HPM_P1;HPM_P2
2022/06/20 00:02:03;;;;;;;3.35;0.80;;;18.00;86.80;;;;;;5094781;28;20024;-74
2022/06/20 00:04:28;;;;;;;6.53;0.70;;;18.10;86.70;;;;;;5095059;28;20076;-74
2022/06/20 00:06:54;;;;;;;6.05;0.50;;;18.20;86.20;;;;;;5095088;28;20020;-74
2022/06/20 00:09:20;;;;;;;3.75;0.47;;;18.20;85.80;;;;;;5094966;28;20036;-74
2022/06/20 00:11:48;;;;;;;5.43;0.40;;;18.30;85.80;;;;;;5094972;28;20021;-75
2022/06/20 00:14:19;;;;;;;4.10;0.30;;;18.40;85.60;;;;;;5094656;28;20020;-74
2022/06/20 00:16:46;;;;;;;3.65;0.50;;;18.40;85.10;;;;;;5094506;28;20585;-74
2022/06/20 00:19:13;;;;;;;3.15;0.38;;;18.50;85.10;;;;;;5094518;28;20039;-74
2022/06/20 00:21:40;;;;;;;4.35;0.70;;;18.50;84.80;;;;;;5094498;28;20099;-74
2022/06/20 00:24:06;;;;;;;5.68;0.70;;;18.40;84.40;;;;;;5094743;28;20417;-74
2022/06/20 00:26:33;;;;;;;6.85;0.90;;;18.40;84.50;;;;;;5094413;28;20426;-74
2022/06/20 00:29:01;;;;;;;3.60;0.90;;;18.40;84.40;;;;;;5094771;28;20027;-74
2022/06/20 00:31:27;;;;;;;3.20;0.57;;;18.20;84.30;;;;;;5093920;28;20028;-74
2022/06/20 00:33:52;;;;;;;5.97;0.40;;;18.20;85.00;;;;;;5094481;28;20467;-74
2022/06/20 00:36:18;;;;;;;4.22;0.70;;;18.10;84.80;;;;;;5094528;28;20040;-74
2022/06/20 00:38:46;;;;;;;4.07;0.60;;;18.10;85.10;;;;;;5094418;28;20103;-74
2022/06/20 00:41:22;;;;;;;3.58;0.55;;;18.10;85.20;;;;;;5094198;28;20051;-74
2022/06/20 00:43:51;;;;;;;3.83;0.45;;;18.20;85.20;;;;;;5094176;28;20036;-74
2022/06/20 00:46:39;;;;;;;4.85;0.65;;;18.10;84.60;;;;;;5093932;28;20058;-74
2022/06/20 00:49:30;;;;;;;4.70;0.45;;;18.00;85.10;;;;;;5093990;28;20091;-74
2022/06/20 00:52:05;;;;;;;6.18;0.40;;;18.00;85.30;;;;;;5086351;28;20071;-74
2022/06/20 00:54:57;;;;;;;7.30;1.23;;;18.10;85.40;;;;;;5094248;28;20023;-74
2022/06/20 00:57:49;;;;;;;5.07;0.52;;;18.00;84.80;;;;;;5093791;28;20028;-74
2022/06/20 01:00:17;;;;;;;5.55;0.60;;;17.90;85.10;;;;;;5093838;28;20031;-74
2022/06/20 01:02:50;;;;;;;3.40;0.55;;;17.80;85.20;;;;;;5093947;28;20028;-74
2022/06/20 01:05:38;;;;;;;4.43;0.80;;;17.80;85.30;;;;;;5093680;28;20020;-74
2022/06/20 01:08:11;;;;;;;3.15;0.43;;;17.80;85.40;;;;;;5093638;28;20032;-74
2022/06/20 01:11:05;;;;;;;4.28;0.50;;;17.90;85.40;;;;;;5093713;28;20476;-74
2022/06/20 01:13:30;;;;;;;4.68;0.52;;;18.00;85.20;;;;;;5091822;28;20036;-74
2022/06/20 01:16:24;;;;;;;4.68;0.55;;;18.00;85.00;;;;;;5093928;28;20020;-74
2022/06/20 01:18:49;;;;;;;;;;;18.10;84.90;;;;;;5087381;28;20036;-74
2022/06/20 01:21:19;;;;;;;4.43;0.80;;;18.10;84.70;;;;;;5093714;28;19904;-74
2022/06/20 01:24:03;;;;;;;4.32;0.50;;;18.10;84.50;;;;;;5093292;28;20118;-74
2022/06/20 01:26:55;;;;;;;3.28;0.30;;;18.10;84.50;;;;;;5093476;28;20066;-74
2022/06/20 01:29:22;;;;;;;4.88;0.60;;;18.00;84.60;;;;;;5093255;28;20107;-74
2022/06/20 01:31:53;;;;;;;5.20;0.57;;;18.00;84.80;;;;;;5093462;28;20434;-74
2022/06/20 01:34:19;;;;;;;3.78;0.50;;;18.00;84.80;;;;;;5093536;28;20020;-74
2022/06/20 01:39:37;;;;;;;3.15;0.60;;;18.00;84.60;;;;;;5093477;28;20031;-74
2022/06/20 01:42:19;;;;;;;3.63;0.52;;;18.00;85.10;;;;;;5093170;28;20069;-74
2022/06/20 01:45:01;;;;;;;8.27;0.80;;;17.90;84.60;;;;;;5095992;28;20471;-73
2022/06/20 01:47:27;;;;;;;7.72;0.57;;;17.90;84.80;;;;;;5097534;28;20017;-74
2022/06/20 01:49:58;;;;;;;5.03;0.55;;;17.80;85.10;;;;;;5097350;28;20048;-74
2022/06/20 01:52:37;;;;;;;4.90;0.50;;;17.80;85.30;;;;;;5097357;28;20031;-74
2022/06/20 01:55:11;;;;;;;4.65;0.52;;;17.80;85.40;;;;;;5096196;28;20028;-74
2022/06/20 01:57:40;;;;;;;4.45;0.63;;;17.90;85.50;;;;;;5097536;28;20043;-74
2022/06/20 02:00:10;;;;;;;4.85;0.40;;;17.90;85.70;;;;;;5097215;28;20341;-74
2022/06/20 02:02:42;;;;;;;5.15;0.60;;;17.90;85.70;;;;;;5097291;28;20020;-74
2022/06/20 02:05:11;;;;;;;6.67;0.50;;;18.00;85.80;;;;;;5097305;28;20020;-74
2022/06/20 02:07:39;;;;;;;5.18;0.70;;;18.00;85.80;;;;;;5097344;28;20023;-74
2022/06/20 02:10:06;;;;;;;4.90;0.57;;;18.00;85.90;;;;;;5097314;28;20027;-74
2022/06/20 02:12:35;;;;;;;4.15;0.43;;;17.80;86.00;;;;;;5097009;28;20085;-74
2022/06/20 02:15:04;;;;;;;6.40;0.60;;;17.80;86.20;;;;;;5096914;28;20468;-74
2022/06/20 02:17:33;;;;;;;4.07;0.30;;;17.90;86.40;;;;;;5097036;28;20028;-74
2022/06/20 02:20:02;;;;;;;3.97;0.75;;;17.80;86.50;;;;;;5096537;28;20094;-74
2022/06/20 02:22:30;;;;;;;5.22;0.70;;;17.90;86.70;;;;;;5097090;28;20028;-74
2022/06/20 02:25:02;;;;;;;4.47;0.50;;;17.90;86.70;;;;;;5096785;28;20020;-74
2022/06/20 02:27:33;;;;;;;4.10;0.55;;;17.80;86.80;;;;;;5096943;28;20031;-74
2022/06/20 02:30:01;;;;;;;3.72;0.52;;;17.80;87.10;;;;;;5096713;28;20032;-74
2022/06/20 02:32:33;;;;;;;5.07;1.10;;;17.70;87.30;;;;;;5096687;28;20028;-74
2022/06/20 02:34:59;;;;;;;4.30;0.35;;;17.60;87.60;;;;;;5096683;28;20024;-74
2022/06/20 02:37:26;;;;;;;3.72;0.50;;;17.60;87.90;;;;;;5096852;28;20023;-74
2022/06/20 02:39:57;;;;;;;4.13;0.50;;;17.60;87.90;;;;;;5096766;28;20054;-74
2022/06/20 02:42:41;;;;;;;5.82;0.90;;;17.70;87.90;;;;;;5096632;28;20036;-74
2022/06/20 02:45:11;;;;;;;8.05;0.70;;;17.70;88.00;;;;;;5096620;28;20032;-74
2022/06/20 02:47:41;;;;;;;2.45;0.40;;;17.70;88.20;;;;;;5096516;28;20427;-74
2022/06/20 02:50:08;;;;;;;3.92;0.43;;;17.60;88.20;;;;;;5096031;28;20044;-74
2022/06/20 02:52:46;;;;;;;6.30;0.55;;;17.70;88.20;;;;;;5096458;28;20064;-74
2022/06/20 02:55:14;;;;;;;6.32;0.95;;;17.70;88.30;;;;;;5095889;28;20036;-74
2022/06/20 02:57:44;;;;;;;3.08;0.85;;;17.60;88.60;;;;;;5095892;28;20028;-74
2022/06/20 03:00:26;;;;;;;5.18;0.60;;;17.60;88.80;;;;;;5096401;28;20077;-74
2022/06/20 03:02:59;;;;;;;3.53;0.45;;;17.60;88.90;;;;;;5096396;28;20034;-74
2022/06/20 03:05:25;;;;;;;4.25;0.70;;;17.70;88.90;;;;;;5096307;28;20068;-74
2022/06/20 03:07:52;;;;;;;5.15;0.68;;;17.70;88.70;;;;;;5096036;28;20070;-74
2022/06/20 03:10:25;;;;;;;5.95;0.80;;;17.70;88.70;;;;;;5095858;28;20024;-74
2022/06/20 03:12:53;;;;;;;3.55;0.50;;;17.60;88.70;;;;;;5096237;28;20353;-74
2022/06/20 03:15:19;;;;;;;2.33;0.68;;;17.60;88.90;;;;;;5096046;28;20028;-74
2022/06/20 03:17:47;;;;;;;6.63;0.73;;;17.60;89.00;;;;;;5095754;28;20110;-74
2022/06/20 03:20:15;;;;;;;4.03;0.50;;;17.60;88.70;;;;;;5095993;28;20028;-74
2022/06/20 03:22:52;;;;;;;8.90;1.02;;;17.50;88.80;;;;;;5095590;28;20036;-74
2022/06/20 03:25:20;;;;;;;7.60;0.82;;;17.30;89.20;;;;;;5095706;28;20024;-74
2022/06/20 03:27:46;;;;;;;3.53;0.80;;;17.20;90.00;;;;;;5095902;28;20059;-74
2022/06/20 03:30:31;;;;;;;6.22;0.80;;;17.00;90.20;;;;;;5095557;28;20352;-74
2022/06/20 03:32:59;;;;;;;2.97;0.45;;;16.80;90.60;;;;;;5095513;28;20020;-74
2022/06/20 03:35:29;;;;;;;7.50;0.88;;;16.90;90.80;;;;;;5095241;28;20031;-74
2022/06/20 03:37:57;;;;;;;4.55;0.82;;;17.00;90.90;;;;;;5095480;28;20471;-74
2022/06/20 03:40:23;;;;;;;5.10;0.82;;;16.90;90.30;;;;;;5095560;28;20127;-74
2022/06/20 03:42:49;;;;;;;7.00;0.82;;;16.70;90.40;;;;;;5095285;28;20481;-74
2022/06/20 03:45:15;;;;;;;6.63;0.90;;;16.60;90.60;;;;;;5095252;28;20467;-74
2022/06/20 03:47:53;;;;;;;6.07;0.60;;;16.70;90.70;;;;;;5095240;28;20042;-74
2022/06/20 03:50:25;;;;;;;3.78;0.88;;;16.70;90.70;;;;;;5095035;28;20048;-74
2022/06/20 03:53:01;;;;;;;5.75;0.55;;;16.60;90.70;;;;;;5095507;28;20020;-74
2022/06/20 03:56:00;;;;;;;3.90;0.40;;;16.60;90.80;;;;;;5095243;28;20032;-74
2022/06/20 03:58:37;;;;;;;3.78;0.60;;;16.60;90.90;;;;;;5094766;28;20031;-74
2022/06/20 04:01:18;;;;;;;7.00;1.10;;;16.70;90.80;;;;;;5095097;28;20391;-74
2022/06/20 04:03:50;;;;;;;6.38;1.30;;;16.80;90.60;;;;;;5094824;28;20463;-74
2022/06/20 04:06:29;;;;;;;4.70;0.50;;;16.80;90.40;;;;;;5094058;28;20031;-74
2022/06/20 04:12:27;;;;;;;3.08;0.40;;;16.70;90.60;;;;;;5089762;28;20495;-74
2022/06/20 04:15:09;;;;;;;6.50;0.60;;;16.80;90.70;;;;;;5094646;28;20032;-74
2022/06/20 04:20:34;;;;;;;8.73;1.25;;;16.90;90.50;;;;;;5094417;28;20055;-74
2022/06/20 04:23:03;;;;;;;4.53;0.70;;;16.90;90.40;;;;;;5094699;28;20036;-74
2022/06/20 04:25:37;;;;;;;4.82;0.65;;;17.00;90.40;;;;;;5094837;28;20027;-74
2022/06/20 04:28:26;;;;;;;4.32;0.47;;;17.00;90.30;;;;;;5094674;28;20031;-74
2022/06/20 04:31:09;;;;;;;5.10;0.50;;;17.10;90.40;;;;;;5084656;28;20544;-74
2022/06/20 04:33:59;;;;;;;4.07;0.70;;;17.20;90.60;;;;;;5094569;28;20031;-74
2022/06/20 04:36:37;;;;;;;10.50;1.08;;;17.30;90.10;;;;;;5094698;28;20425;-74
2022/06/20 04:39:24;;;;;;;4.63;0.47;;;17.30;89.90;;;;;;5094211;28;20031;-74
2022/06/20 04:41:56;;;;;;;5.97;0.73;;;17.40;90.00;;;;;;5094199;28;20429;-74
2022/06/20 04:44:33;;;;;;;8.65;1.13;;;17.30;89.80;;;;;;5093935;28;20507;-74
2022/06/20 04:47:29;;;;;;;4.18;0.50;;;17.30;89.80;;;;;;5094087;28;20028;-74
2022/06/20 04:49:55;;;;;;;5.65;0.60;;;17.40;89.80;;;;;;5093695;28;20458;-74
2022/06/20 04:52:25;;;;;;;8.48;0.80;;;17.40;89.50;;;;;;5093643;28;20024;-74
2022/06/20 04:54:54;;;;;;;8.15;1.17;;;17.40;89.50;;;;;;5094077;28;20109;-74
2022/06/20 04:57:21;;;;;;;6.45;0.80;;;17.40;89.40;;;;;;5093397;28;20031;-74
2022/06/20 04:59:47;;;;;;;6.30;0.82;;;17.40;89.40;;;;;;5093599;28;20024;-74
2022/06/20 05:02:20;;;;;;;4.78;0.65;;;17.40;89.70;;;;;;5093596;28;20089;-74
2022/06/20 05:04:49;;;;;;;4.43;0.70;;;17.30;89.60;;;;;;5093519;28;20024;-74
2022/06/20 05:07:30;;;;;;;6.00;0.85;;;17.30;90.00;;;;;;5093829;28;20034;-74
2022/06/20 05:10:16;;;;;;;4.13;0.68;;;17.30;90.00;;;;;;5093498;28;20048;-74
2022/06/20 05:12:50;;;;;;;5.45;0.90;;;17.30;90.10;;;;;;5093465;28;20511;-74
2022/06/20 05:15:24;;;;;;;7.72;0.88;;;17.40;90.10;;;;;;5093372;28;20028;-74
2022/06/20 05:17:52;;;;;;;4.75;0.80;;;17.30;90.10;;;;;;5093560;28;20027;-73
2022/06/20 05:20:28;;;;;;;7.10;1.05;;;17.30;90.20;;;;;;5093230;28;20095;-73
2022/06/20 05:23:21;;;;;;;4.80;0.90;;;17.30;90.60;;;;;;5093565;28;20178;-74
2022/06/20 05:25:47;;;;;;;4.18;0.80;;;17.20;90.40;;;;;;5084722;28;20497;-73
2022/06/20 05:28:20;;;;;;;6.22;0.90;;;17.20;90.50;;;;;;5093183;28;20386;-73
2022/06/20 05:30:46;;;;;;;5.90;0.68;;;17.20;90.60;;;;;;5092955;28;20027;-73
2022/06/20 05:33:34;;;;;;;4.35;0.80;;;17.30;90.70;;;;;;5093241;28;20050;-74
2022/06/20 05:36:18;;;;;;;6.85;1.00;;;17.30;90.70;;;;;;5092988;28;20027;-74
2022/06/20 05:38:57;;;;;;;6.68;0.63;;;17.30;90.50;;;;;;5093454;28;20020;-74
2022/06/20 05:41:23;;;;;;;4.82;0.70;;;17.30;90.60;;;;;;5092818;28;20085;-74
2022/06/20 05:43:49;;;;;;;5.93;0.60;;;17.40;90.70;;;;;;5093335;28;20467;-74
2022/06/20 05:46:36;;;;;;;3.70;0.60;;;17.50;90.50;;;;;;5093180;28;20016;-75
2022/06/20 05:49:06;;;;;;;1.92;0.38;;;17.60;90.20;;;;;;5093072;28;20082;-82
2022/06/20 05:51:36;;;;;;;2.13;0.40;;;17.60;90.40;;;;;;5092525;28;20052;-84
2022/06/20 05:54:24;;;;;;;2.50;0.32;;;18.10;90.40;;;;;;5092048;28;20028;-81
2022/06/20 05:57:00;;;;;;;4.43;0.57;;;18.60;89.10;;;;;;5081397;28;20421;-82
2022/06/20 05:59:47;;;;;;;5.28;0.60;;;19.00;86.70;;;;;;5092180;28;20099;-81
2022/06/20 06:02:25;;;;;;;8.50;0.77;;;19.30;85.20;;;;;;5090608;28;20030;-82
2022/06/20 06:05:16;;;;;;;6.88;0.60;;;19.40;84.00;;;;;;5082089;28;20391;-83
2022/06/20 06:08:13;;;;;;;10.30;0.50;;;19.60;83.50;;;;;;5091588;28;20028;-82
2022/06/20 06:10:45;;;;;;;7.47;0.77;;;19.90;82.10;;;;;;5091557;28;20024;-85
2022/06/20 06:13:30;;;;;;;8.43;0.50;;;20.10;81.20;;;;;;5092539;28;20028;-82
2022/06/20 06:19:49;;;;;;;4.32;0.63;;;20.30;79.90;;;;;;5092667;28;20035;-86
2022/06/20 06:22:35;;;;;;;3.40;0.52;;;20.40;79.70;;;;;;5093356;28;20024;-86
2022/06/20 06:25:23;;;;;;;5.05;0.80;;;20.40;79.00;;;;;;5092534;28;20028;-86
2022/06/20 06:27:53;;;;;;;7.22;0.50;;;20.40;78.50;;;;;;5092287;28;20416;-75
2022/06/20 06:30:32;;;;;;;5.50;0.55;;;20.40;78.60;;;;;;5093346;28;20107;-73
2022/06/20 06:33:09;;;;;;;3.45;0.55;;;20.50;78.40;;;;;;5094414;28;20111;-75
2022/06/20 06:35:42;;;;;;;6.00;1.00;;;20.40;78.10;;;;;;5096087;28;20031;-75
2022/06/20 06:38:19;;;;;;;4.10;0.60;;;20.20;78.60;;;;;;5095151;28;20024;-75
2022/06/20 06:40:54;;;;;;;5.68;0.50;;;20.10;79.60;;;;;;5091796;28;20051;-75
2022/06/20 06:43:37;;;;;;;7.05;1.00;;;20.20;79.20;;;;;;5095317;28;20047;-75
2022/06/20 06:46:10;;;;;;;5.95;0.95;;;20.30;79.00;;;;;;5094482;28;20103;-75
2022/06/20 06:48:46;;;;;;;6.07;0.90;;;20.40;78.60;;;;;;5094569;28;20048;-75
2022/06/20 06:51:37;;;;;;;7.25;1.05;;;20.40;77.80;;;;;;5094671;28;20152;-75
2022/06/20 06:54:28;;;;;;;6.13;1.30;;;20.40;77.90;;;;;;5094262;28;20493;-75
2022/06/20 06:57:07;;;;;;;5.93;1.02;;;20.20;77.50;;;;;;5094094;28;20047;-75
2022/06/20 06:59:40;;;;;;;3.28;0.75;;;19.90;78.20;;;;;;5097402;28;20036;-75
2022/06/20 07:02:18;;;;;;;6.05;0.90;;;19.70;79.30;;;;;;5094234;28;20036;-73
2022/06/20 07:05:01;;;;;;;3.40;0.93;;;19.70;80.00;;;;;;5093802;28;20024;-72
2022/06/20 07:07:36;;;;;;;5.05;0.95;;;19.70;80.10;;;;;;5094475;28;20054;-72
2022/06/20 07:10:02;;;;;;;5.43;1.10;;;19.80;79.50;;;;;;5094805;28;20434;-72
2022/06/20 07:12:36;;;;;;;4.97;1.02;;;19.90;79.50;;;;;;5091602;28;20028;-72
2022/06/20 07:15:08;;;;;;;5.95;1.08;;;19.90;78.90;;;;;;5093119;28;20024;-75
2022/06/20 07:17:42;;;;;;;7.68;1.35;;;20.00;79.10;;;;;;5094524;28;20036;-76
2022/06/20 07:20:09;;;;;;;7.40;1.20;;;20.00;78.80;;;;;;5094245;28;20391;-76
2022/06/20 07:22:38;;;;;;;4.65;1.20;;;20.10;78.90;;;;;;5091381;28;20044;-76
2022/06/20 07:25:05;;;;;;;4.72;1.10;;;20.10;78.90;;;;;;5094146;28;20126;-76
2022/06/20 07:27:37;;;;;;;3.90;0.95;;;20.30;78.70;;;;;;5092256;28;20024;-76
2022/06/20 07:30:12;;;;;;;4.25;1.00;;;20.30;77.90;;;;;;5093060;28;20111;-75
2022/06/20 07:32:44;;;;;;;8.52;0.90;;;20.20;74.90;;;;;;5093540;28;20426;-75
2022/06/20 07:35:14;;;;;;;7.72;1.17;;;20.00;77.20;;;;;;5094110;28;20031;-75
2022/06/20 07:38:03;;;;;;;4.50;1.10;;;19.90;76.10;;;;;;5094269;28;20089;-75
2022/06/20 07:40:36;;;;;;;4.38;0.80;;;19.70;76.00;;;;;;5093575;28;20472;-76
2022/06/20 07:43:31;;;;;;;8.38;1.10;;;19.50;77.10;;;;;;5092701;28;20028;-74
2022/06/20 07:46:02;;;;;;;2.75;0.90;;;19.40;78.20;;;;;;5081890;28;20032;-75
2022/06/20 07:48:35;;;;;;;5.30;0.98;;;19.50;78.00;;;;;;5092928;28;20047;-75
2022/06/20 07:51:16;;;;;;;5.57;1.17;;;19.70;77.20;;;;;;5093392;28;20089;-75
2022/06/20 07:53:55;;;;;;;6.77;1.13;;;19.80;75.60;;;;;;5093393;28;20044;-75
2022/06/20 07:56:41;;;;;;;5.05;1.50;;;19.90;76.10;;;;;;5091724;28;20059;-76
2022/06/20 07:59:15;;;;;;;8.00;1.45;;;20.10;76.00;;;;;;5093765;28;20476;-76
2022/06/20 08:01:55;;;;;;;4.47;1.10;;;20.10;75.00;;;;;;5094625;28;20028;-75
2022/06/20 08:04:28;;;;;;;4.47;0.95;;;20.00;74.40;;;;;;5094386;28;20028;-75
2022/06/20 08:07:05;;;;;;;6.05;0.90;;;20.00;72.80;;;;;;5093321;28;20107;-76
2022/06/20 08:09:46;;;;;;;5.07;1.05;;;20.10;73.40;;;;;;5091624;28;20044;-75
2022/06/20 08:12:17;;;;;;;4.57;1.02;;;20.10;72.20;;;;;;5093518;28;20036;-74
2022/06/20 08:14:59;;;;;;;7.03;1.38;;;20.20;72.70;;;;;;5092434;28;20020;-74
2022/06/20 08:17:27;;;;;;;4.65;0.98;;;20.30;72.00;;;;;;5093180;28;20024;-74
2022/06/20 08:19:55;;;;;;;5.68;1.40;;;20.40;71.40;;;;;;5091052;28;20016;-74
2022/06/20 08:22:48;;;;;;;5.50;1.17;;;20.50;71.20;;;;;;5092604;28;20039;-75
2022/06/20 08:25:38;;;;;;;9.40;1.73;;;20.40;70.70;;;;;;5093109;28;20103;-77
2022/06/20 08:28:18;;;;;;;16.17;1.33;;;20.40;70.40;;;;;;5093497;28;20054;-75
2022/06/20 08:30:54;;;;;;;5.25;1.40;;;20.40;71.50;;;;;;5091052;28;20112;-75
2022/06/20 08:33:50;;;;;;;3.88;1.10;;;20.50;69.60;;;;;;5090406;28;20051;-76
2022/06/20 08:36:40;;;;;;;5.47;1.00;;;20.60;67.80;;;;;;5092719;28;20036;-75
2022/06/20 08:39:12;;;;;;;9.38;1.05;;;20.60;69.30;;;;;;5090826;28;20024;-76
2022/06/20 08:42:18;;;;;;;6.32;1.13;;;20.60;68.50;;;;;;5093053;28;20479;-75
2022/06/20 08:45:05;;;;;;;6.60;1.30;;;20.50;67.80;;;;;;5013966;28;20033;-75
2022/06/20 08:47:53;;;;;;;9.35;1.75;;;20.50;68.30;;;;;;5086429;28;20103;-75
2022/06/20 08:50:42;;;;;;;7.47;1.70;;;20.40;69.10;;;;;;5092315;28;20086;-76
2022/06/20 08:53:20;;;;;;;6.25;1.15;;;20.20;67.00;;;;;;5091594;28;20028;-75
2022/06/20 08:56:11;;;;;;;4.20;1.00;;;20.20;67.60;;;;;;5092253;28;20055;-75
2022/06/20 08:58:45;;;;;;;3.90;1.10;;;20.40;68.70;;;;;;5090584;28;20036;-76
2022/06/20 09:01:52;;;;;;;7.57;1.67;;;20.70;67.10;;;;;;5091988;28;20482;-76
2022/06/20 09:04:41;;;;;;;5.43;0.95;;;20.70;66.00;;;;;;5026066;28;20050;-75
2022/06/20 09:07:27;;;;;;;11.43;1.10;;;20.70;66.00;;;;;;5079623;28;20039;-75
2022/06/20 09:10:11;;;;;;;2.72;1.02;;;20.90;64.50;;;;;;5092100;28;20065;-76
2022/06/20 09:12:58;;;;;;;5.55;1.30;;;20.90;63.60;;;;;;5091235;28;20038;-76
2022/06/20 09:15:37;;;;;;;5.25;1.20;;;21.00;65.30;;;;;;5090245;28;20028;-75
2022/06/20 09:18:17;;;;;;;5.32;0.95;;;21.10;64.90;;;;;;5091892;28;20387;-76
2022/06/20 09:21:05;;;;;;;6.57;1.23;;;21.30;66.60;;;;;;5088778;28;20035;-76
2022/06/20 09:23:39;;;;;;;6.05;1.25;;;21.30;66.60;;;;;;5089736;28;20032;-76
2022/06/20 09:26:10;;;;;;;3.45;0.98;;;21.20;64.20;;;;;;5091951;28;20024;-75
2022/06/20 09:29:02;;;;;;;6.60;1.23;;;21.30;65.70;;;;;;5090218;28;20039;-74
2022/06/20 09:31:57;;;;;;;3.83;1.25;;;21.50;65.70;;;;;;5091184;28;20031;-74
2022/06/20 09:34:44;;;;;;;6.55;1.23;;;21.50;64.40;;;;;;5091683;28;20073;-73
2022/06/20 09:37:39;;;;;;;5.10;1.30;;;21.40;65.40;;;;;;5091458;28;20382;-74
2022/06/20 09:40:42;;;;;;;4.10;1.02;;;21.40;65.70;;;;;;5091490;28;20016;-74
2022/06/20 09:43:24;;;;;;;8.48;1.70;;;21.30;65.30;;;;;;5091771;28;20052;-74
2022/06/20 09:46:27;;;;;;;5.18;1.15;;;21.30;65.80;;;;;;5091867;28;20062;-75
2022/06/20 09:49:01;;;;;;;;;;;21.20;63.80;;;;;;5081184;28;20110;-74
2022/06/20 09:51:55;;;;;;;5.53;1.00;;;21.30;63.80;;;;;;5091277;28;19938;-74
2022/06/20 09:54:45;;;;;;;5.45;1.20;;;21.40;63.10;;;;;;5088389;28;20024;-75
2022/06/20 09:57:21;;;;;;;7.00;1.10;;;21.50;63.10;;;;;;5091455;28;20020;-74
2022/06/20 10:00:05;;;;;;;5.47;1.20;;;21.60;64.50;;;;;;5091656;28;20027;-75
2022/06/20 10:02:59;;;;;;;5.82;1.15;;;21.70;64.00;;;;;;5091649;28;20032;-78
2022/06/20 10:05:27;;;;;;;5.57;1.02;;;21.90;62.00;;;;;;5093468;28;20383;-80
2022/06/20 10:07:58;;;;;;;4.90;0.88;;;22.00;61.80;;;;;;5097585;28;20024;-80
2022/06/20 10:10:28;;;;;;;5.65;0.82;;;22.10;61.40;;;;;;5096066;28;20028;-80
2022/06/20 10:13:15;;;;;;;3.50;0.88;;;22.30;60.50;;;;;;5095195;28;20059;-80
2022/06/20 10:15:55;;;;;;;5.25;1.10;;;22.40;58.80;;;;;;5095817;28;20478;-80
2022/06/20 10:18:54;;;;;;;4.85;0.70;;;22.40;58.30;;;;;;5095129;28;20024;-80
2022/06/20 10:21:55;;;;;;;2.65;0.57;;;22.30;58.30;;;;;;5095063;28;20609;-80
2022/06/20 10:24:39;;;;;;;5.93;1.10;;;22.30;58.60;;;;;;5095025;28;20408;-80
2022/06/20 10:27:32;;;;;;;6.05;1.15;;;22.50;59.20;;;;;;5094690;28;20060;-80
2022/06/20 10:30:14;;;;;;;5.75;1.15;;;22.60;60.10;;;;;;5095500;28;20099;-80
2022/06/20 10:32:55;;;;;;;5.20;0.90;;;22.40;58.90;;;;;;5095450;28;20028;-80
2022/06/20 10:35:32;;;;;;;8.02;1.38;;;22.10;58.40;;;;;;5095076;28;20375;-80
2022/06/20 10:38:04;;;;;;;2.90;0.50;;;22.00;59.60;;;;;;5093441;28;20026;-80
2022/06/20 10:40:34;;;;;;;3.83;0.70;;;22.00;56.50;;;;;;5094866;28;20028;-80
2022/06/20 10:43:00;;;;;;;4.78;0.45;;;22.10;56.70;;;;;;5092270;28;20514;-81
2022/06/20 10:45:25;;;;;;;5.78;0.65;;;22.00;55.90;;;;;;5094679;28;20107;-80
2022/06/20 10:47:57;;;;;;;2.55;0.50;;;22.00;55.60;;;;;;5094816;28;20024;-80
2022/06/20 10:50:49;;;;;;;5.35;0.85;;;22.10;54.60;;;;;;5094539;28;20032;-80
2022/06/20 10:53:29;;;;;;;3.60;0.60;;;22.30;55.50;;;;;;5060545;28;20049;-80
2022/06/20 10:56:06;;;;;;;2.03;0.40;;;22.40;55.50;;;;;;5094599;28;20100;-80
2022/06/20 10:59:14;;;;;;;4.10;0.60;;;22.60;55.10;;;;;;5094483;28;20030;-80
2022/06/20 11:01:57;;;;;;;2.47;0.50;;;22.80;53.90;;;;;;5091753;28;20030;-80
2022/06/20 11:04:41;;;;;;;3.35;1.10;;;22.90;53.00;;;;;;5092512;28;20040;-80
2022/06/20 11:07:31;;;;;;;2.45;0.30;;;23.10;55.10;;;;;;5094472;28;20028;-80
2022/06/20 11:10:25;;;;;;;6.38;0.68;;;23.40;54.10;;;;;;5095260;28;20028;-79
2022/06/20 11:13:15;;;;;;;2.92;0.50;;;23.50;53.60;;;;;;5094811;28;20470;-79
2022/06/20 11:15:40;;;;;;;3.03;0.60;;;23.70;53.20;;;;;;5092525;28;20024;-78
2022/06/20 11:18:44;;;;;;;4.82;0.63;;;23.80;52.80;;;;;;5094405;28;20540;-78
2022/06/20 11:21:22;;;;;;;2.63;0.60;;;23.70;52.80;;;;;;5094627;28;20059;-78
2022/06/20 11:23:54;;;;;;;7.55;0.85;;;23.50;52.90;;;;;;5093008;28;20038;-78
2022/06/20 11:26:56;;;;;;;3.33;0.60;;;23.20;53.30;;;;;;5094429;28;20023;-78
2022/06/20 11:29:30;;;;;;;4.75;0.80;;;23.10;53.40;;;;;;5091845;28;20375;-78
2022/06/20 11:32:25;;;;;;;5.38;0.75;;;23.10;55.40;;;;;;5094052;28;20124;-79
2022/06/20 11:35:21;;;;;;;6.43;0.88;;;23.00;54.50;;;;;;5059222;28;20032;-79
2022/06/20 11:38:05;;;;;;;2.42;0.60;;;22.90;54.80;;;;;;5094033;28;20150;-78
2022/06/20 11:40:44;;;;;;;4.47;0.80;;;22.70;54.90;;;;;;5094154;28;20019;-79
2022/06/20 11:43:24;;;;;;;5.47;0.73;;;22.60;55.60;;;;;;5093909;28;20032;-79
2022/06/20 11:45:59;;;;;;;4.03;0.80;;;22.40;55.50;;;;;;5093654;28;20024;-78
2022/06/20 11:48:58;;;;;;;3.30;0.93;;;22.40;58.10;;;;;;5093368;28;20040;-79
2022/06/20 11:51:54;;;;;;;4.63;0.73;;;22.60;57.80;;;;;;5093916;28;20024;-81
2022/06/20 11:54:27;;;;;;;3.72;0.63;;;23.00;56.70;;;;;;5091556;28;20027;-81
2022/06/20 11:56:58;;;;;;;;;;;23.20;54.90;;;;;;5093875;28;20051;-78
2022/06/20 11:59:44;;;;;;;4.40;0.82;;;23.40;56.10;;;;;;5093276;28;19904;-78
2022/06/20 12:02:30;;;;;;;4.82;0.60;;;23.60;55.70;;;;;;5094073;28;20028;-79
2022/06/20 12:05:23;;;;;;;3.83;0.90;;;23.70;54.00;;;;;;5095002;28;20040;-79
2022/06/20 12:08:08;;;;;;;3.83;0.60;;;23.80;54.10;;;;;;5093551;28;20099;-79
2022/06/20 12:10:46;;;;;;;3.45;0.70;;;23.80;53.30;;;;;;5094515;28;20089;-79
2022/06/20 12:13:45;;;;;;;2.10;0.50;;;23.60;53.00;;;;;;5094617;28;20028;-79
2022/06/20 12:16:16;;;;;;;5.85;0.90;;;23.30;53.50;;;;;;5094771;28;20039;-78
2022/06/20 12:24:26;;;;;;;5.05;0.65;;;23.30;53.20;;;;;;5094203;28;20551;-79
2022/06/20 12:26:53;;;;;;;2.38;0.70;;;23.30;52.90;;;;;;5094367;28;20399;-79
2022/06/20 12:29:22;;;;;;;6.60;0.70;;;23.40;54.00;;;;;;5094061;28;20028;-78
2022/06/20 12:32:00;;;;;;;3.58;0.60;;;23.60;54.00;;;;;;5094535;28;20103;-79
2022/06/20 12:34:34;;;;;;;3.95;0.43;;;23.60;53.70;;;;;;5094711;28;20050;-78
2022/06/20 12:37:22;;;;;;;5.00;0.60;;;23.70;54.20;;;;;;5094363;28;20119;-79
2022/06/20 12:40:00;;;;;;;3.90;0.65;;;23.90;53.90;;;;;;5094131;28;20020;-79
2022/06/20 12:42:52;;;;;;;7.13;0.77;;;23.80;53.50;;;;;;5094169;28;20028;-79
2022/06/20 12:46:00;;;;;;;6.55;0.90;;;23.70;52.80;;;;;;5094051;28;20035;-79
2022/06/20 12:48:50;;;;;;;3.03;0.60;;;23.80;53.10;;;;;;5093725;28;20518;-79
2022/06/20 12:51:28;;;;;;;4.13;0.50;;;23.70;54.00;;;;;;5094181;28;20109;-79
2022/06/20 12:54:05;;;;;;;4.18;0.50;;;23.50;53.50;;;;;;5094001;28;20494;-79
2022/06/20 12:56:46;;;;;;;3.22;0.40;;;23.40;54.30;;;;;;5094170;28;20134;-79
2022/06/20 12:59:43;;;;;;;7.63;0.85;;;23.20;54.90;;;;;;5093990;28;20043;-79
2022/06/20 13:02:19;;;;;;;6.65;0.70;;;23.00;55.80;;;;;;5094030;28;20352;-79
2022/06/20 13:05:14;;;;;;;5.40;0.70;;;22.90;56.10;;;;;;5094047;28;20107;-78
2022/06/20 13:08:07;;;;;;;4.22;1.25;;;22.90;56.70;;;;;;5093405;28;20541;-79
2022/06/20 13:10:41;;;;;;;4.95;0.82;;;22.80;57.00;;;;;;5093887;28;20035;-79
2022/06/20 13:13:23;;;;;;;6.43;0.93;;;22.80;56.80;;;;;;5093317;28;20020;-79
2022/06/20 13:16:26;;;;;;;5.63;0.80;;;22.90;57.70;;;;;;5093648;28;20460;-79
2022/06/20 13:19:31;;;;;;;4.95;0.90;;;23.00;57.00;;;;;;5093682;28;20028;-78
2022/06/20 13:22:23;;;;;;;6.05;1.40;;;23.00;56.30;;;;;;5093308;28;20024;-79
2022/06/20 13:25:10;;;;;;;4.13;0.55;;;23.00;56.00;;;;;;5093408;28;20040;-79
2022/06/20 13:27:51;;;;;;;7.20;0.85;;;22.90;56.20;;;;;;5092946;28;20483;-79
2022/06/20 13:30:39;;;;;;;5.80;1.02;;;22.70;56.60;;;;;;5093037;28;20020;-79
2022/06/20 13:33:29;;;;;;;3.70;0.90;;;22.60;57.50;;;;;;5093284;28;20073;-79
2022/06/20 13:36:19;;;;;;;7.18;1.05;;;22.50;57.80;;;;;;5092776;28;20032;-79
2022/06/20 13:39:15;;;;;;;6.03;0.90;;;22.50;57.80;;;;;;5093474;28;20028;-79
2022/06/20 13:41:44;;;;;;;6.35;1.15;;;22.60;58.00;;;;;;5093175;28;20058;-78
2022/06/20 13:44:31;;;;;;;3.70;0.80;;;23.00;59.70;;;;;;5093427;28;20043;-78
2022/06/20 13:47:28;;;;;;;7.15;0.95;;;23.00;56.70;;;;;;5093497;28;20020;-78
2022/06/20 13:50:03;;;;;;;5.55;0.65;;;22.90;57.20;;;;;;5092685;28;20048;-78
2022/06/20 13:52:51;;;;;;;3.88;0.70;;;22.80;57.30;;;;;;5093316;28;20364;-78
2022/06/20 13:55:29;;;;;;;7.50;1.30;;;22.70;57.70;;;;;;5093520;28;20052;-79
2022/06/20 13:58:23;;;;;;;4.82;1.10;;;22.60;58.20;;;;;;5093066;28;20017;-78
2022/06/20 14:01:06;;;;;;;5.93;0.80;;;22.50;58.20;;;;;;5092931;28;20063;-79
2022/06/20 14:03:59;;;;;;;5.32;0.82;;;22.40;58.50;;;;;;5092959;28;20556;-79
2022/06/20 14:06:28;;;;;;;4.93;0.80;;;22.50;58.30;;;;;;5090531;28;20483;-79